Time;durP1;ratioP1;P1;durP2;ratioP2;P2;SDS_P1;SDS_P2;PMS_P1;PMS_P2;Temp;Humidity;BMP_temperature;BMP_pressure;BME280_temperature;BME280_humidity;BME280_pressure;Samples;Min_cycle;Max_cycle;Signal;HPM_P1;HPM_P2
2021/12/21 00:00:40;;;;;;;10.45;8.08;;;;;;;-1.21;100.00;99920.05;1756568;79;21071;-81
2021/12/21 00:03:08;;;;;;;12.65;9.08;;;;;;;-1.19;100.00;99918.28;1748447;79;21060;-81
2021/12/21 00:05:36;;;;;;;11.68;8.45;;;;;;;-1.18;100.00;99921.22;1726944;81;21142;-82
2021/12/21 00:08:12;;;;;;;12.70;8.18;;;;;;;-1.20;100.00;99919.16;1741073;81;21587;-81
2021/12/21 00:10:35;;;;;;;12.80;9.00;;;;;;;-1.24;100.00;99920.18;1754216;81;21087;-81
2021/12/21 00:13:08;;;;;;;13.18;9.20;;;;;;;-1.29;100.00;99912.23;1720733;81;21039;-83
2021/12/21 00:18:25;;;;;;;12.90;9.05;;;;;;;-1.32;100.00;99919.99;1754937;81;22214;-82
2021/12/21 00:20:53;;;;;;;13.03;9.00;;;;;;;-1.30;100.00;99919.95;1717151;81;21059;-81
2021/12/21 00:23:30;;;;;;;12.75;9.53;;;;;;;-1.28;100.00;99920.28;1751863;81;20975;-82
2021/12/21 00:25:46;;;;;;;14.28;9.63;;;;;;;-1.21;100.00;99926.44;1758716;81;21062;-83
2021/12/21 00:28:14;;;;;;;11.85;9.23;;;;;;;-1.19;100.00;99923.38;1763613;81;21003;-81
2021/12/21 00:30:41;;;;;;;12.07;8.13;;;;;;;-1.20;100.00;99926.37;1763805;81;21496;-83
2021/12/21 00:33:08;;;;;;;13.18;8.50;;;;;;;-1.21;100.00;99931.12;1730909;81;21396;-82
2021/12/21 00:35:35;;;;;;;10.10;7.87;;;;;;;-1.21;100.00;99933.67;1764095;81;21503;-81
2021/12/21 00:38:04;;;;;;;12.90;8.48;;;;;;;-1.20;100.00;99926.83;1763496;81;21580;-83
2021/12/21 00:40:32;;;;;;;12.90;7.92;;;;;;;-1.23;100.00;99932.89;1763865;81;21035;-84
2021/12/21 00:42:59;;;;;;;10.43;7.28;;;;;;;-1.28;100.00;99925.39;1731143;81;21118;-82
2021/12/21 00:49:00;;;;;;;10.08;7.92;;;;;;;-1.37;100.00;99928.73;1731119;81;21059;-84
2021/12/21 00:51:27;;;;;;;11.25;8.25;;;;;;;-1.41;100.00;99934.41;1758733;81;21090;-82
2021/12/21 00:53:55;;;;;;;12.10;8.55;;;;;;;-1.44;100.00;99937.06;1763472;81;21039;-80
2021/12/21 00:56:22;;;;;;;10.90;8.05;;;;;;;-1.45;100.00;99932.83;1763524;81;21194;-82
2021/12/21 00:58:49;;;;;;;12.43;9.08;;;;;;;-1.44;100.00;99932.77;1763314;81;21046;-82
2021/12/21 01:01:16;;;;;;;14.28;8.90;;;;;;;-1.43;100.00;99934.90;1763602;81;21000;-81
2021/12/21 01:03:49;;;;;;;15.65;8.90;;;;;;;-1.40;100.00;99932.67;1763295;81;20968;-82
2021/12/21 01:06:21;;;;;;;16.70;9.63;;;;;;;-1.38;100.00;99927.89;1727774;81;21062;-82
2021/12/21 01:09:03;;;;;;;15.70;9.50;;;;;;;-1.31;100.00;99924.67;1759139;81;21640;-81
2021/12/21 01:11:21;;;;;;;16.77;10.55;;;;;;;-1.28;100.00;99925.39;1758639;81;21540;-80
2021/12/21 01:14:01;;;;;;;14.43;10.38;;;;;;;-1.21;100.00;99932.82;1763389;81;21054;-80
2021/12/21 01:16:25;;;;;;;16.97;9.80;;;;;;;-1.17;100.00;99933.11;1759018;81;21050;-81
2021/12/21 01:19:09;;;;;;;16.57;10.00;;;;;;;-1.16;100.00;99932.23;1763375;81;21098;-82
2021/12/21 01:21:39;;;;;;;16.05;9.63;;;;;;;-1.19;100.00;99936.16;1727838;81;21887;-81
2021/12/21 01:29:24;;;;;;;22.32;12.80;;;;;;;-1.26;100.00;99953.42;1755293;81;21059;-82
2021/12/21 01:31:58;;;;;;;21.97;12.35;;;;;;;-1.29;100.00;99956.94;1750261;81;21051;-81
2021/12/21 01:34:30;;;;;;;21.62;13.13;;;;;;;-1.32;100.00;99960.86;1749872;81;21231;-81
2021/12/21 01:37:48;;;;;;;19.82;13.28;;;;;;;-1.29;100.00;99959.48;1750112;81;21445;-81
2021/12/21 01:39:51;;;;;;;18.35;12.68;;;;;;;-1.24;100.00;99964.44;1742924;81;21699;-83
2021/12/21 01:42:05;;;;;;;20.85;13.80;;;;;;;-1.22;100.00;99968.20;1750208;81;21012;-81
2021/12/21 01:49:50;;;;;;;21.60;13.55;;;;;;;-1.29;100.00;99962.05;1754994;81;21039;-82
2021/12/21 01:52:22;;;;;;;22.35;13.68;;;;;;;-1.29;100.00;99969.70;1755085;81;21580;-81
2021/12/21 01:54:50;;;;;;;21.70;14.45;;;;;;;-1.30;100.00;99960.38;1754970;81;21001;-82
2021/12/21 01:57:17;;;;;;;22.35;13.85;;;;;;;-1.29;100.00;99967.61;1755183;81;21428;-80
2021/12/21 01:59:46;;;;;;;23.05;13.98;;;;;;;-1.29;100.00;99972.27;1720783;81;21106;-80
2021/12/21 02:02:18;;;;;;;20.50;13.08;;;;;;;-1.28;100.00;99980.75;1754920;81;21047;-80
2021/12/21 02:04:45;;;;;;;20.57;12.98;;;;;;;-1.28;100.00;99981.59;1755265;81;21508;-81
2021/12/21 02:07:13;;;;;;;18.60;12.75;;;;;;;-1.27;100.00;99984.97;1755179;81;21091;-81
2021/12/21 02:09:41;;;;;;;20.90;14.15;;;;;;;-1.27;100.00;99981.98;1754853;81;21094;-80
2021/12/21 02:12:12;;;;;;;23.05;15.35;;;;;;;-1.25;100.00;99986.22;1748746;80;21130;-81
2021/12/21 02:14:41;;;;;;;21.33;13.65;;;;;;;-1.22;100.00;99984.80;1757467;80;21093;-82
2021/12/21 02:23:07;;;;;;;15.28;9.95;;;;;;;-1.15;100.00;99992.63;1745355;80;21188;-80
2021/12/21 02:30:49;;;;;;;11.25;8.05;;;;;;;-1.17;100.00;99994.44;1756329;81;21790;-80
2021/12/21 02:33:15;;;;;;;14.50;9.23;;;;;;;-1.16;100.00;99999.48;1751272;80;20994;-80
2021/12/21 02:35:43;;;;;;;12.05;8.18;;;;;;;-1.17;100.00;99996.53;1756410;81;21033;-80
2021/12/21 02:38:11;;;;;;;11.95;8.03;;;;;;;-1.16;100.00;99996.92;1756301;80;21181;-80
2021/12/21 02:40:39;;;;;;;13.65;9.40;;;;;;;-1.19;100.00;99999.58;1756088;81;21057;-80
2021/12/21 02:43:08;;;;;;;14.15;8.90;;;;;;;-1.21;100.00;100003.08;1756130;81;21053;-80
2021/12/21 02:45:37;;;;;;;13.13;9.05;;;;;;;-1.28;100.00;99999.91;1756236;80;21049;-81
2021/12/21 02:48:04;;;;;;;15.35;8.98;;;;;;;-1.35;100.00;99995.48;1755711;81;21637;-82
2021/12/21 02:50:31;;;;;;;12.25;8.33;;;;;;;-1.47;100.00;100002.28;1756019;80;21136;-80
2021/12/21 02:53:02;;;;;;;15.23;8.98;;;;;;;-1.62;100.00;100011.33;1737204;81;21005;-81
2021/12/21 02:55:29;;;;;;;11.60;8.20;;;;;;;-1.80;100.00;100016.59;1769782;79;21052;-81
2021/12/21 02:57:57;;;;;;;11.00;7.83;;;;;;;-1.99;100.00;100027.42;1769321;80;21518;-81
2021/12/21 03:00:27;;;;;;;8.50;6.67;;;;;;;-2.23;100.00;100027.33;1769295;79;21564;-80
2021/12/21 03:03:02;;;;;;;18.67;10.15;;;;;;;-2.46;100.00;100033.13;1734056;81;21846;-81
2021/12/21 03:05:28;;;;;;;11.57;8.00;;;;;;;-2.64;100.00;100038.34;1722193;81;21320;-81
2021/12/21 03:10:25;;;;;;;11.38;7.08;;;;;;;-2.77;100.00;100044.24;1769624;80;21036;-81
2021/12/21 03:15:28;;;;;;;10.93;7.78;;;;;;;-2.87;100.00;100046.66;1764803;80;21526;-80
2021/12/21 03:17:57;;;;;;;10.80;7.08;;;;;;;-2.88;100.00;100050.92;1769533;79;21541;-80
2021/12/21 03:20:25;;;;;;;12.03;7.42;;;;;;;-2.92;100.00;100051.88;1769717;80;21482;-80
2021/12/21 03:22:55;;;;;;;9.95;6.37;;;;;;;-2.99;100.00;100065.67;1769584;80;21004;-84
2021/12/21 03:25:24;;;;;;;8.10;6.00;;;;;;;-3.07;100.00;100075.23;1775077;79;21377;-82
2021/12/21 03:27:51;;;;;;;8.80;5.50;;;;;;;-3.11;100.00;100068.56;1746456;80;21221;-81
2021/12/21 03:30:18;;;;;;;7.22;5.03;;;;;;;-3.14;100.00;100076.28;1778234;79;21715;-81
2021/12/21 03:32:46;;;;;;;5.95;4.53;;;;;;;-3.14;100.00;100078.83;1746309;80;21013;-79
2021/12/21 03:35:13;;;;;;;5.47;3.98;;;;;;;-3.15;100.00;100073.33;1778292;79;21035;-80
2021/12/21 03:37:40;;;;;;;5.35;4.10;;;;;;;-3.22;100.00;100069.69;1746294;80;22185;-80
2021/12/21 03:40:08;;;;;;;4.70;3.62;;;;;;;-3.29;100.00;100079.64;1778270;79;21061;-80
2021/12/21 03:42:35;;;;;;;4.70;3.65;;;;;;;-3.36;100.00;100085.77;1724831;81;21953;-80
2021/12/21 03:45:03;;;;;;;4.05;3.45;;;;;;;-3.43;100.00;100085.08;1778541;79;21066;-80
2021/12/21 03:47:31;;;;;;;5.60;3.58;;;;;;;-3.49;100.00;100093.73;1746207;80;21799;-80
2021/12/21 03:50:01;;;;;;;5.90;3.60;;;;;;;-3.53;100.00;100088.31;1755918;80;21525;-80
2021/12/21 03:52:29;;;;;;;5.97;4.12;;;;;;;-3.54;100.00;100083.27;1754127;80;21170;-80
2021/12/21 03:55:02;;;;;;;5.25;3.98;;;;;;;-3.55;100.00;100090.05;1734296;81;21119;-80
2021/12/21 03:57:29;;;;;;;5.50;3.35;;;;;;;-3.57;100.00;100094.78;1781911;79;20989;-83
2021/12/21 03:59:57;;;;;;;4.80;3.15;;;;;;;-3.57;100.00;100104.55;1726438;81;21006;-80
2021/12/21 04:02:26;;;;;;;7.00;3.42;;;;;;;-3.62;100.00;100107.63;1726306;81;21691;-80
2021/12/21 04:04:56;;;;;;;4.08;3.35;;;;;;;-3.68;100.00;100116.23;1693583;81;22100;-80
2021/12/21 04:07:22;;;;;;;4.87;3.70;;;;;;;-3.72;100.00;100116.34;1726411;81;21092;-81
2021/12/21 04:09:50;;;;;;;4.95;3.60;;;;;;;-3.74;100.00;100114.30;1692569;83;21069;-81
2021/12/21 04:12:17;;;;;;;6.55;3.72;;;;;;;-3.74;100.00;100125.30;1692834;83;21041;-82
2021/12/21 04:14:44;;;;;;;4.87;3.95;;;;;;;-3.74;100.00;100132.11;1693404;83;21038;-82
2021/12/21 04:17:18;;;;;;;5.03;3.50;;;;;;;-3.77;100.00;100127.08;1726140;81;21111;-83
2021/12/21 04:19:41;;;;;;;4.22;3.33;;;;;;;-3.76;100.00;100127.48;1697291;82;21092;-81
2021/12/21 04:22:09;;;;;;;4.00;3.15;;;;;;;-3.72;100.00;100129.92;1752983;80;21585;-81
2021/12/21 04:24:36;;;;;;;5.03;3.33;;;;;;;-3.67;100.00;100129.81;1781045;79;21013;-82
2021/12/21 04:27:05;;;;;;;5.03;3.37;;;;;;;-3.61;100.00;100128.39;1780796;79;21645;-82
2021/12/21 04:29:32;;;;;;;6.22;3.65;;;;;;;-3.57;100.00;100135.09;1750752;80;21113;-80
2021/12/21 04:31:59;;;;;;;24.57;4.20;;;;;;;-3.54;100.00;100131.63;1781039;79;21097;-79
2021/12/21 04:34:26;;;;;;;9.13;3.72;;;;;;;-3.43;100.00;100133.91;1781172;79;21018;-82
2021/12/21 04:36:54;;;;;;;36.53;5.17;;;;;;;-3.13;100.00;100131.45;1781988;79;21045;-82
2021/12/21 04:40:06;;;;;;;4.72;3.70;;;;;;;-2.96;100.00;100130.56;1781389;80;21143;-82
2021/12/21 04:41:53;;;;;;;12.80;4.03;;;;;;;-2.90;100.00;100133.39;1711233;80;21067;-81
2021/12/21 04:44:19;;;;;;;4.25;2.90;;;;;;;-2.89;100.00;100129.52;1781862;79;21088;-81
2021/12/21 04:46:47;;;;;;;6.97;3.87;;;;;;;-2.89;100.00;100128.70;1781539;79;21013;-81
2021/12/21 04:49:13;;;;;;;20.15;6.30;;;;;;;-2.89;100.00;100136.34;1781371;79;21565;-82
2021/12/21 04:51:40;;;;;;;16.67;5.05;;;;;;;-2.93;100.00;100129.64;1781899;80;21151;-81
2021/12/21 04:54:07;;;;;;;8.48;3.77;;;;;;;-2.92;100.00;100126.22;1781783;79;21561;-82
2021/12/21 04:56:34;;;;;;;9.45;3.92;;;;;;;-2.71;100.00;100142.64;1781700;79;21020;-81
2021/12/21 04:59:01;;;;;;;20.43;5.35;;;;;;;-2.50;100.00;100144.18;1781717;80;21053;-83
2021/12/21 05:01:28;;;;;;;40.03;5.35;;;;;;;-2.35;100.00;100153.94;1781468;79;21045;-81
2021/12/21 05:03:55;;;;;;;5.40;3.52;;;;;;;-2.30;100.00;100155.94;1775451;79;20979;-82
2021/12/21 05:06:23;;;;;;;8.20;3.17;;;;;;;-2.21;100.00;100165.02;1775478;80;21113;-82
2021/12/21 05:09:13;;;;;;;;;;;;;;;;;;;;;
2021/12/21 05:11:20;;;;;;;13.80;3.40;;;;;;;-2.12;100.00;100174.11;1721403;81;21069;-81
2021/12/21 05:13:47;;;;;;;17.75;3.62;;;;;;;-2.03;100.00;100176.39;1767084;79;21051;-82
2021/12/21 05:16:14;;;;;;;17.70;3.52;;;;;;;-1.92;100.00;100182.02;1781983;80;21025;-81
2021/12/21 05:18:41;;;;;;;8.60;3.08;;;;;;;-1.77;100.00;100183.28;1782065;80;21152;-80
2021/12/21 05:21:08;;;;;;;3.42;2.60;;;;;;;-1.73;100.00;100185.30;1782309;80;21026;-85
2021/12/21 05:23:37;;;;;;;9.70;4.58;;;;;;;-1.72;100.00;100188.22;1780897;80;21097;-81
2021/12/21 05:26:04;;;;;;;7.67;5.65;;;;;;;-1.72;100.00;100197.61;1757987;80;21022;-81
2021/12/21 05:28:31;;;;;;;9.50;5.05;;;;;;;-1.76;100.00;100199.42;1746337;82;21519;-82
2021/12/21 05:30:59;;;;;;;10.28;6.83;;;;;;;-1.80;100.00;100197.83;1746487;80;21664;-81
2021/12/21 05:33:28;;;;;;;13.70;6.42;;;;;;;-1.79;100.00;100199.50;1731100;81;21702;-82
2021/12/21 05:35:56;;;;;;;7.37;4.83;;;;;;;-1.79;100.00;100202.91;1756585;81;21114;-85
2021/12/21 05:38:30;;;;;;;11.20;4.20;;;;;;;-1.84;100.00;100198.81;1756158;81;21074;-82
2021/12/21 05:40:54;;;;;;;10.82;4.47;;;;;;;-1.88;100.00;100203.18;1743779;82;21015;-81
2021/12/21 05:43:22;;;;;;;7.10;4.00;;;;;;;-1.91;100.00;100204.11;1746266;81;21062;-82
2021/12/21 05:45:49;;;;;;;8.83;4.15;;;;;;;-1.90;100.00;100212.59;1756165;80;21671;-82
2021/12/21 05:48:16;;;;;;;7.87;4.65;;;;;;;-1.91;100.00;100212.19;1742500;80;21046;-82
2021/12/21 05:50:44;;;;;;;6.90;4.37;;;;;;;-1.92;100.00;100211.38;1735516;81;21555;-82
2021/12/21 05:53:11;;;;;;;6.20;4.70;;;;;;;-1.93;100.00;100213.52;1731099;80;21069;-83
2021/12/21 05:55:39;;;;;;;8.85;5.83;;;;;;;-1.94;100.00;100222.52;1756339;80;21195;-82
2021/12/21 05:58:06;;;;;;;9.78;5.97;;;;;;;-1.94;100.00;100223.78;1758827;80;21494;-81
2021/12/21 06:00:36;;;;;;;7.20;5.08;;;;;;;-1.96;100.00;100225.54;1759001;80;21048;-82
2021/12/21 06:03:04;;;;;;;7.08;5.50;;;;;;;-1.99;100.00;100226.89;1759084;80;21032;-81
2021/12/21 06:05:30;;;;;;;8.03;5.92;;;;;;;-2.02;100.00;100228.28;1759167;80;21089;-81
2021/12/21 06:07:58;;;;;;;14.10;6.53;;;;;;;-2.04;100.00;100230.86;1748878;81;21137;-81
2021/12/21 06:10:33;;;;;;;7.58;5.97;;;;;;;-2.05;100.00;100238.14;1720414;82;21006;-82
2021/12/21 06:15:47;;;;;;;8.48;5.85;;;;;;;-1.96;100.00;100239.58;1723733;82;23325;-82
2021/12/21 06:26:12;;;;;;;8.98;4.90;;;;;;;-1.96;100.00;100246.78;1745931;80;21520;-81
2021/12/21 06:28:41;;;;;;;7.50;4.30;;;;;;;-1.97;100.00;100252.80;1743894;82;21449;-81
2021/12/21 06:31:10;;;;;;;20.97;5.55;;;;;;;-1.96;100.00;100256.17;1746263;80;21054;-82
2021/12/21 06:33:38;;;;;;;4.85;3.90;;;;;;;-1.93;100.00;100253.54;1745291;82;21200;-82
2021/12/21 06:36:07;;;;;;;10.70;5.05;;;;;;;-1.91;100.00;100250.05;1745978;80;21686;-83
2021/12/21 06:38:37;;;;;;;7.40;4.75;;;;;;;-1.87;100.00;100252.08;1745981;82;21090;-82
2021/12/21 06:41:04;;;;;;;11.20;5.25;;;;;;;-1.83;100.00;100263.03;1745869;80;21026;-83
2021/12/21 06:43:32;;;;;;;8.95;5.67;;;;;;;-1.79;100.00;100260.77;1746195;80;21062;-81
2021/12/21 06:46:14;;;;;;;9.90;7.15;;;;;;;-1.82;100.00;100271.91;1729694;82;21151;-81
2021/12/21 06:53:55;;;;;;;14.30;7.80;;;;;;;-2.14;100.00;100269.84;1746174;80;22224;-81
2021/12/21 06:56:24;;;;;;;15.08;9.10;;;;;;;-2.26;100.00;100276.12;1746275;80;20983;-82
2021/12/21 06:58:53;;;;;;;15.75;9.03;;;;;;;-2.28;100.00;100275.31;1729945;82;21124;-83
2021/12/21 07:01:21;;;;;;;15.35;9.05;;;;;;;-2.23;100.00;100279.02;1746091;82;21067;-83
2021/12/21 07:03:49;;;;;;;13.80;8.45;;;;;;;-2.14;100.00;100283.05;1745988;82;21015;-83
2021/12/21 07:06:18;;;;;;;13.78;8.28;;;;;;;-2.03;100.00;100284.84;1745965;80;21050;-82
2021/12/21 07:08:55;;;;;;;10.95;7.62;;;;;;;-1.94;100.00;100286.31;1746270;80;27770;-82
2021/12/21 07:11:30;;;;;;;10.70;7.40;;;;;;;-1.88;100.00;100279.75;1743575;82;21347;-83
2021/12/21 07:19:23;;;;;;;10.70;7.42;;;;;;;-1.75;100.00;100294.28;1746308;80;21461;-82
2021/12/21 07:21:50;;;;;;;10.35;7.97;;;;;;;-1.78;100.00;100295.63;1745975;80;21603;-82
2021/12/21 07:24:17;;;;;;;12.30;7.65;;;;;;;-1.82;100.00;100303.00;1746373;82;21063;-82
2021/12/21 07:26:44;;;;;;;11.03;7.28;;;;;;;-1.93;100.00;100305.41;1732991;81;20999;-82
2021/12/21 07:29:12;;;;;;;11.25;7.87;;;;;;;-1.97;100.00;100307.66;1757064;80;21062;-82
2021/12/21 07:31:39;;;;;;;12.13;7.60;;;;;;;-2.04;100.00;100307.41;1757027;81;21490;-82
2021/12/21 07:34:06;;;;;;;14.10;7.45;;;;;;;-2.08;100.00;100307.11;1732037;80;21058;-82
2021/12/21 07:37:11;;;;;;;12.45;7.60;;;;;;;-2.20;100.00;100308.73;1757476;81;21724;-83
2021/12/21 07:39:40;;;;;;;14.00;8.83;;;;;;;-2.35;100.00;100308.70;1757350;81;20991;-82
2021/12/21 07:42:07;;;;;;;11.22;8.00;;;;;;;-2.43;100.00;100313.56;1756969;81;20959;-83
2021/12/21 07:44:34;;;;;;;11.00;7.53;;;;;;;-2.44;100.00;100314.44;1757247;80;21085;-83
2021/12/21 07:47:01;;;;;;;13.48;8.70;;;;;;;-2.50;100.00;100326.08;1731846;81;21105;-84
2021/12/21 07:49:28;;;;;;;12.10;8.35;;;;;;;-2.54;100.00;100326.59;1757098;80;21127;-82
2021/12/21 07:51:57;;;;;;;11.75;7.72;;;;;;;-2.57;100.00;100338.59;1756863;81;21074;-84
2021/12/21 07:54:24;;;;;;;11.30;8.25;;;;;;;-2.63;100.00;100343.39;1757113;81;21027;-83
2021/12/21 07:56:51;;;;;;;10.58;7.47;;;;;;;-2.65;100.00;100340.03;1731897;81;21038;-83
2021/12/21 07:59:18;;;;;;;11.80;7.90;;;;;;;-2.68;100.00;100335.45;1757073;81;21089;-83
2021/12/21 08:01:47;;;;;;;11.20;7.67;;;;;;;-2.71;100.00;100334.64;1756782;81;21145;-84
2021/12/21 08:04:16;;;;;;;11.60;7.92;;;;;;;-2.72;100.00;100338.06;1734622;81;21046;-82
2021/12/21 08:06:47;;;;;;;13.25;8.30;;;;;;;-2.75;100.00;100338.58;1757233;80;21682;-83
2021/12/21 08:09:13;;;;;;;10.30;7.15;;;;;;;-2.80;100.00;100337.41;1757232;81;20975;-83
2021/12/21 08:14:09;;;;;;;11.25;7.85;;;;;;;-2.87;100.00;100330.79;1756948;80;21185;-82
2021/12/21 08:16:37;;;;;;;10.93;8.23;;;;;;;-2.86;100.00;100332.05;1757148;80;20999;-82
2021/12/21 08:19:04;;;;;;;13.28;9.30;;;;;;;-2.80;100.00;100334.03;1757189;81;21069;-82
2021/12/21 08:21:31;;;;;;;13.13;9.05;;;;;;;-2.78;100.00;100342.49;1757100;80;21026;-82
2021/12/21 08:23:58;;;;;;;13.62;9.45;;;;;;;-2.77;100.00;100340.34;1757121;80;20978;-82
2021/12/21 08:26:25;;;;;;;15.25;10.50;;;;;;;-2.83;100.00;100337.92;1767769;80;21149;-82
2021/12/21 08:28:52;;;;;;;15.08;11.33;;;;;;;-2.92;100.00;100339.81;1781843;80;21120;-82
2021/12/21 08:31:19;;;;;;;12.88;8.78;;;;;;;-2.94;100.00;100341.59;1781877;80;20994;-81
2021/12/21 08:33:47;;;;;;;16.57;11.20;;;;;;;-2.94;100.00;100338.18;1781797;80;20991;-82
2021/12/21 08:36:14;;;;;;;13.28;9.03;;;;;;;-3.00;100.00;100332.79;1781987;80;21290;-82
2021/12/21 08:38:43;;;;;;;13.72;9.88;;;;;;;-3.05;100.00;100335.47;1782064;80;21126;-82
2021/12/21 08:41:10;;;;;;;11.38;9.05;;;;;;;-3.09;100.00;100331.30;1781903;80;20947;-83
2021/12/21 08:43:38;;;;;;;13.00;7.90;;;;;;;-3.14;100.00;100338.23;1750533;80;21085;-82
2021/12/21 08:46:10;;;;;;;11.25;7.92;;;;;;;-3.17;100.00;100342.11;1781893;80;21030;-82
2021/12/21 08:48:35;;;;;;;11.63;8.00;;;;;;;-3.15;100.00;100356.92;1780806;80;21073;-81
2021/12/21 08:51:05;;;;;;;12.43;8.25;;;;;;;-3.13;100.00;100351.79;1781509;80;20978;-81
2021/12/21 08:53:33;;;;;;;13.30;9.68;;;;;;;-3.09;100.00;100357.23;1781575;80;20931;-82
2021/12/21 08:56:00;;;;;;;12.78;9.30;;;;;;;-3.06;100.00;100356.72;1749389;80;21002;-82
2021/12/21 08:58:28;;;;;;;14.35;10.08;;;;;;;-3.05;100.00;100358.82;1749433;80;21043;-82
2021/12/21 09:00:55;;;;;;;15.90;8.78;;;;;;;-3.08;100.00;100359.73;1781812;80;21034;-82
2021/12/21 09:03:23;;;;;;;15.72;9.68;;;;;;;-3.07;100.00;100360.55;1749392;80;21054;-82
2021/12/21 09:05:52;;;;;;;12.63;8.58;;;;;;;-3.05;100.00;100369.02;1779505;80;21010;-83
2021/12/21 09:08:20;;;;;;;11.00;7.75;;;;;;;-3.03;100.00;100363.00;1780984;79;21077;-82
2021/12/21 09:10:47;;;;;;;9.75;7.30;;;;;;;-3.06;100.00;100360.97;1761212;80;21116;-82
2021/12/21 09:13:14;;;;;;;10.08;7.05;;;;;;;-3.10;100.00;100363.19;1750928;82;21677;-81
2021/12/21 09:15:42;;;;;;;10.28;7.17;;;;;;;-3.09;100.00;100366.97;1750532;81;22013;-82
2021/12/21 09:18:09;;;;;;;11.93;7.55;;;;;;;-3.06;100.00;100367.33;1750738;82;21488;-84
2021/12/21 09:20:37;;;;;;;12.73;9.08;;;;;;;-3.09;100.00;100373.34;1750656;82;21565;-86
2021/12/21 09:23:04;;;;;;;11.43;6.92;;;;;;;-3.14;100.00;100371.77;1730430;80;21719;-85
2021/12/21 09:25:31;;;;;;;9.80;6.72;;;;;;;-3.14;100.00;100370.48;1781223;80;21463;-85
2021/12/21 09:27:58;;;;;;;11.05;6.85;;;;;;;-3.15;100.00;100373.91;1764585;79;21095;-84
2021/12/21 09:30:30;;;;;;;11.30;7.15;;;;;;;-3.06;100.00;100373.70;1777488;80;21081;-83
2021/12/21 09:32:59;;;;;;;12.30;7.55;;;;;;;-2.94;100.00;100371.31;1785768;80;21041;-82
2021/12/21 09:35:27;;;;;;;9.70;6.72;;;;;;;-2.79;100.00;100370.13;1786427;80;21084;-83
2021/12/21 09:37:55;;;;;;;10.55;7.60;;;;;;;-2.64;100.00;100362.11;1767861;80;21547;-83
2021/12/21 09:40:28;;;;;;;11.28;7.78;;;;;;;-2.50;100.00;100364.33;1759516;79;21077;-83
2021/12/21 09:42:58;;;;;;;7.70;6.22;;;;;;;-2.40;100.00;100364.92;1783052;80;21022;-83
2021/12/21 09:45:26;;;;;;;8.75;6.90;;;;;;;-2.34;100.00;100357.56;1784761;79;22134;-83
2021/12/21 09:47:53;;;;;;;10.08;7.65;;;;;;;-2.26;100.00;100352.64;1762619;79;21093;-82
2021/12/21 09:50:22;;;;;;;10.63;7.65;;;;;;;-2.16;100.00;100363.44;1778189;79;21147;-83
2021/12/21 09:52:49;;;;;;;10.05;6.97;;;;;;;-2.10;100.00;100362.44;1764795;81;21136;-85
2021/12/21 09:55:19;;;;;;;10.32;7.80;;;;;;;-2.12;100.00;100368.87;1764657;79;21057;-85
2021/12/21 10:01:21;;;;;;;10.65;7.47;;;;;;;-2.32;100.00;100369.39;1764444;79;21103;-83
2021/12/21 10:03:49;;;;;;;15.40;7.78;;;;;;;-2.44;100.00;100373.09;1760560;79;21090;-83
2021/12/21 10:06:16;;;;;;;10.45;6.75;;;;;;;-2.50;100.00;100372.39;1742796;81;21393;-84
2021/12/21 10:08:46;;;;;;;13.25;8.88;;;;;;;-2.54;100.00;100367.81;1740521;79;21063;-85
2021/12/21 10:11:22;;;;;;;10.50;7.80;;;;;;;-2.56;100.00;100371.68;1764235;80;20989;-83
2021/12/21 10:13:49;;;;;;;11.08;7.85;;;;;;;-2.59;100.00;100366.64;1738806;79;21053;-84
2021/12/21 10:16:22;;;;;;;11.95;8.33;;;;;;;-2.66;100.00;100368.12;1734532;82;21811;-84
2021/12/21 10:18:50;;;;;;;12.55;8.90;;;;;;;-2.76;100.00;100364.94;1735077;81;21109;-84
2021/12/21 10:21:18;;;;;;;11.10;7.70;;;;;;;-2.78;100.00;100364.16;1734478;82;21100;-83
2021/12/21 10:23:48;;;;;;;10.15;8.03;;;;;;;-2.73;100.00;100371.25;1714125;82;21107;-84
2021/12/21 10:26:22;;;;;;;12.00;8.70;;;;;;;-2.59;100.00;100373.47;1733187;81;21677;-83
2021/12/21 10:28:54;;;;;;;15.65;9.65;;;;;;;-2.50;100.00;100374.95;1716886;83;21113;-83
2021/12/21 10:31:36;;;;;;;12.03;8.60;;;;;;;-2.49;100.00;100376.63;1714618;82;21163;-84
2021/12/21 10:34:07;;;;;;;12.37;8.88;;;;;;;-2.51;100.00;100378.36;1714563;82;21019;-83
2021/12/21 10:36:45;;;;;;;12.00;8.58;;;;;;;-2.56;100.00;100372.95;1716514;82;21053;-84
2021/12/21 10:39:21;;;;;;;11.78;9.05;;;;;;;-2.60;100.00;100376.44;1716511;82;21501;-83
2021/12/21 10:41:51;;;;;;;11.95;8.80;;;;;;;-2.71;100.00;100379.25;1715465;82;21054;-87
2021/12/21 10:44:20;;;;;;;11.97;8.25;;;;;;;-2.79;100.00;100372.22;1716399;82;21165;-83
2021/12/21 10:46:53;;;;;;;11.83;8.88;;;;;;;-2.81;100.00;100376.96;1738880;80;21535;-83
2021/12/21 10:49:27;;;;;;;14.45;8.70;;;;;;;-2.80;100.00;100379.91;1745396;80;20991;-85
2021/12/21 10:52:05;;;;;;;12.07;8.65;;;;;;;-2.84;100.00;100370.68;1744566;80;21485;-83
2021/12/21 10:54:47;;;;;;;12.85;8.70;;;;;;;-2.90;100.00;100372.93;1747772;81;21054;-85
2021/12/21 10:57:18;;;;;;;13.08;8.48;;;;;;;-2.98;100.00;100379.91;1756787;80;21600;-83
2021/12/21 10:59:51;;;;;;;18.62;9.75;;;;;;;-3.06;100.00;100377.52;1772260;79;21038;-81
2021/12/21 11:02:31;;;;;;;11.75;8.63;;;;;;;-3.05;100.00;100379.20;1752976;80;21062;-82
2021/12/21 11:05:11;;;;;;;10.15;7.12;;;;;;;-3.05;100.00;100386.84;1743947;81;21277;-85
2021/12/21 11:07:55;;;;;;;9.75;4.80;;;;;;;-3.08;100.00;100380.53;1747692;79;21104;-83
2021/12/21 11:10:30;;;;;;;6.97;4.55;;;;;;;-3.24;100.00;100393.61;1733351;79;21921;-84
2021/12/21 11:13:01;;;;;;;5.20;3.42;;;;;;;-3.43;100.00;100403.80;1735856;81;21064;-85
2021/12/21 11:15:38;;;;;;;5.40;3.17;;;;;;;-3.60;100.00;100410.48;1745754;80;21062;-82
2021/12/21 11:18:13;;;;;;;4.47;3.12;;;;;;;-3.76;100.00;100410.78;1725646;80;21030;-81
2021/12/21 11:20:50;;;;;;;4.78;3.20;;;;;;;-3.91;100.00;100417.02;1732277;80;21539;-83
2021/12/21 11:23:23;;;;;;;4.15;2.72;;;;;;;-4.03;100.00;100421.89;1701361;82;21798;-82
2021/12/21 11:25:58;;;;;;;3.90;2.62;;;;;;;-4.10;100.00;100422.01;1701708;83;21073;-82
2021/12/21 11:28:29;;;;;;;5.87;2.75;;;;;;;-4.16;100.00;100423.80;1714622;82;21665;-82
2021/12/21 11:31:04;;;;;;;3.92;2.90;;;;;;;-4.21;100.00;100419.23;1725548;81;21558;-84
2021/12/21 11:33:43;;;;;;;2.25;1.85;;;;;;;-4.20;100.00;100424.70;1713443;82;21489;-79
2021/12/21 11:39:02;;;;;;;2.65;2.33;;;;;;;-4.24;100.00;100436.22;1781406;79;21006;-82
2021/12/21 11:41:31;;;;;;;5.55;3.83;;;;;;;-4.32;100.00;100442.28;1698497;83;21502;-82
2021/12/21 11:44:36;;;;;;;4.75;3.00;;;;;;;-4.38;100.00;100436.47;1707992;81;21618;-82
2021/12/21 11:47:08;;;;;;;3.02;2.08;;;;;;;-4.41;100.00;100437.78;1713637;81;21570;-83
2021/12/21 11:49:47;;;;;;;5.60;2.70;;;;;;;-4.50;100.00;100435.80;1729003;81;21117;-83
2021/12/21 11:52:22;;;;;;;5.35;3.90;;;;;;;-4.54;100.00;100431.64;1735834;81;21503;-82
2021/12/21 11:54:57;;;;;;;7.65;4.00;;;;;;;-4.59;100.00;100432.12;1726387;81;21099;-83
2021/12/21 11:57:37;;;;;;;5.87;4.33;;;;;;;-4.60;100.00;100427.89;1693021;83;22043;-86
2021/12/21 12:00:22;;;;;;;4.10;2.85;;;;;;;-4.60;100.00;100432.98;1726437;81;21000;-83
2021/12/21 12:02:53;;;;;;;3.27;2.70;;;;;;;-4.62;100.00;100445.72;1729483;81;21167;-81
2021/12/21 12:05:29;;;;;;;3.70;2.40;;;;;;;-4.64;100.00;100428.82;1801094;78;21009;-82
2021/12/21 12:08:12;;;;;;;4.33;2.90;;;;;;;-4.68;100.00;100435.66;1758437;81;21033;-82
2021/12/21 12:10:59;;;;;;;3.75;2.77;;;;;;;-4.71;100.00;100437.41;1730535;81;21046;-81
2021/12/21 12:13:39;;;;;;;6.30;3.47;;;;;;;-4.78;100.00;100445.12;1791777;79;21103;-90
2021/12/21 12:16:13;;;;;;;4.92;2.83;;;;;;;-4.80;100.00;100450.64;1728262;81;21137;-81
2021/12/21 12:18:47;;;;;;;5.42;3.60;;;;;;;-4.78;100.00;100455.70;1781348;79;21026;-81
2021/12/21 12:21:19;;;;;;;4.92;3.27;;;;;;;-4.81;100.00;100454.48;1697980;83;21035;-82
2021/12/21 12:24:02;;;;;;;3.33;2.37;;;;;;;-4.88;100.00;100456.27;1728468;80;21010;-83
2021/12/21 12:26:38;;;;;;;6.08;3.15;;;;;;;-4.98;100.00;100461.91;1668911;84;21956;-82
2021/12/21 12:29:16;;;;;;;6.20;3.25;;;;;;;-5.04;100.00;100467.05;1711785;80;21069;-82